createdAt,value
2023-03-26T00:00:44.394Z,6.20
2023-03-26T00:03:14.290Z,6.10
2023-03-26T00:05:41.489Z,6.00
2023-03-26T00:08:08.993Z,5.90
2023-03-26T00:10:36.960Z,5.80
2023-03-26T00:13:04.476Z,5.80
2023-03-26T00:15:31.764Z,5.70
2023-03-26T00:17:58.497Z,5.70
2023-03-26T00:20:27.564Z,5.70
2023-03-26T00:22:55.115Z,5.70
2023-03-26T00:25:23.696Z,5.70
2023-03-26T00:27:50.623Z,5.70
2023-03-26T00:30:17.549Z,5.70
2023-03-26T00:32:45.041Z,5.60
2023-03-26T00:35:20.886Z,5.60
2023-03-26T00:37:47.923Z,5.60
2023-03-26T00:40:15.692Z,5.70
2023-03-26T00:42:42.904Z,5.80
2023-03-26T00:45:10.843Z,5.80
2023-03-26T00:47:38.082Z,5.80
2023-03-26T00:50:05.084Z,5.90
2023-03-26T00:52:31.949Z,5.90
2023-03-26T00:54:58.918Z,5.90
2023-03-26T00:57:35.473Z,6.00
2023-03-26T01:00:09.958Z,6.00
2023-03-26T01:02:36.827Z,6.00
2023-03-26T01:05:26.058Z,6.00
2023-03-26T01:07:53.004Z,6.10
2023-03-26T01:10:23.236Z,6.00
2023-03-26T01:12:50.123Z,6.00
2023-03-26T01:15:16.859Z,6.00
2023-03-26T01:17:43.736Z,5.90
2023-03-26T01:20:15.850Z,5.80
2023-03-26T01:22:49.548Z,5.70
2023-03-26T01:25:19.663Z,5.70
2023-03-26T01:27:51.983Z,5.60
2023-03-26T01:30:25.867Z,5.50
2023-03-26T01:32:53.100Z,5.40
2023-03-26T01:35:33.980Z,5.30
2023-03-26T01:38:16.553Z,5.30
2023-03-26T01:40:49.980Z,5.30
2023-03-26T01:43:32.363Z,5.30
2023-03-26T01:46:01.097Z,5.30
2023-03-26T01:48:33.819Z,5.30
2023-03-26T01:51:01.182Z,5.40
2023-03-26T01:53:28.619Z,5.40
2023-03-26T01:56:02.578Z,5.40
2023-03-26T01:58:35.020Z,5.40
2023-03-26T02:01:02.132Z,5.40
2023-03-26T02:03:35.844Z,5.40
2023-03-26T02:06:09.865Z,5.40
2023-03-26T02:08:46.951Z,5.40
2023-03-26T02:11:16.014Z,5.30
2023-03-26T02:13:45.575Z,5.40
2023-03-26T02:16:16.909Z,5.30
2023-03-26T02:18:45.450Z,5.30
2023-03-26T02:21:20.636Z,5.30
2023-03-26T02:23:48.632Z,5.30
2023-03-26T02:26:16.965Z,5.30
2023-03-26T02:28:43.742Z,5.30
2023-03-26T02:31:11.225Z,5.30
2023-03-26T02:33:40.335Z,5.30
2023-03-26T02:36:08.755Z,5.30
2023-03-26T02:38:35.952Z,5.30
2023-03-26T02:41:03.400Z,5.20
2023-03-26T02:43:30.410Z,5.10
2023-03-26T02:45:57.570Z,5.20
2023-03-26T02:48:24.543Z,5.10
2023-03-26T02:50:54.741Z,5.00
2023-03-26T02:53:24.203Z,5.00
2023-03-26T02:55:51.233Z,5.00
2023-03-26T02:58:17.993Z,4.90
2023-03-26T03:00:46.805Z,5.00
2023-03-26T03:03:14.656Z,4.90
2023-03-26T03:05:43.512Z,4.90
2023-03-26T03:08:10.306Z,4.80
2023-03-26T03:10:37.993Z,4.80
2023-03-26T03:13:10.180Z,4.80
2023-03-26T03:15:36.819Z,4.70
2023-03-26T03:18:03.989Z,4.80
2023-03-26T03:20:30.829Z,4.80
2023-03-26T03:23:01.552Z,4.80
2023-03-26T03:25:28.450Z,4.80
2023-03-26T03:27:55.395Z,4.80
2023-03-26T03:30:22.195Z,4.70
2023-03-26T03:32:48.985Z,4.80
2023-03-26T03:35:15.946Z,4.70
2023-03-26T03:37:42.682Z,4.80
2023-03-26T03:40:10.948Z,4.70
2023-03-26T03:42:40.296Z,4.70
2023-03-26T03:45:07.404Z,4.70
2023-03-26T03:47:34.155Z,4.70
2023-03-26T03:50:01.233Z,4.70
2023-03-26T03:52:28.356Z,4.60
2023-03-26T03:54:56.551Z,4.70
2023-03-26T03:57:23.866Z,4.70
2023-03-26T03:59:50.477Z,4.60
2023-03-26T04:02:26.665Z,4.60
2023-03-26T04:04:54.338Z,4.60
2023-03-26T04:07:21.184Z,4.60
2023-03-26T04:09:48.069Z,4.50
2023-03-26T04:12:15.338Z,4.50
2023-03-26T04:14:42.590Z,4.50
2023-03-26T04:17:09.609Z,4.40
2023-03-26T04:19:37.603Z,4.50
2023-03-26T04:22:07.429Z,4.50
2023-03-26T04:24:34.180Z,4.40
2023-03-26T04:27:04.098Z,4.50
2023-03-26T04:29:34.660Z,4.50
2023-03-26T04:32:06.579Z,4.40
2023-03-26T04:34:38.682Z,4.50
2023-03-26T04:37:05.476Z,4.50
2023-03-26T04:39:34.030Z,4.50
2023-03-26T04:42:01.021Z,4.50
2023-03-26T04:44:30.583Z,4.60
2023-03-26T04:46:57.364Z,4.60
2023-03-26T04:49:24.196Z,4.60
2023-03-26T04:51:51.086Z,4.60
2023-03-26T04:54:20.168Z,4.70
2023-03-26T04:56:51.188Z,4.70
2023-03-26T04:59:26.577Z,4.80
2023-03-26T05:01:53.954Z,4.80
2023-03-26T05:04:20.799Z,4.90
2023-03-26T05:06:47.694Z,4.90
2023-03-26T05:09:14.554Z,5.00
2023-03-26T05:11:45.732Z,5.00
2023-03-26T05:14:12.383Z,5.10
2023-03-26T05:16:39.755Z,5.10
2023-03-26T05:19:08.320Z,5.20
2023-03-26T05:21:35.408Z,5.30
2023-03-26T05:24:02.740Z,5.30
2023-03-26T05:26:32.021Z,5.40
2023-03-26T05:29:01.418Z,5.40
2023-03-26T05:31:28.308Z,5.50
2023-03-26T05:33:55.660Z,5.50
2023-03-26T05:36:23.896Z,5.60
2023-03-26T05:38:52.483Z,5.60
2023-03-26T05:41:19.221Z,5.70
2023-03-26T05:43:48.984Z,5.80
2023-03-26T05:46:16.029Z,5.80
2023-03-26T05:48:45.505Z,5.90
2023-03-26T05:51:13.186Z,6.00
2023-03-26T05:53:40.096Z,6.10
2023-03-26T05:56:07.593Z,6.10
2023-03-26T05:58:34.807Z,6.20
2023-03-26T06:01:08.625Z,6.30
2023-03-26T06:03:38.604Z,6.30
2023-03-26T06:06:10.026Z,6.40
2023-03-26T06:08:36.752Z,6.50
2023-03-26T06:11:04.740Z,6.60
2023-03-26T06:13:31.682Z,6.70
2023-03-26T06:15:58.787Z,6.80
2023-03-26T06:18:26.227Z,6.80
2023-03-26T06:20:53.691Z,7.00
2023-03-26T06:23:23.310Z,7.10
2023-03-26T06:25:51.155Z,7.20
2023-03-26T06:28:18.288Z,7.30
2023-03-26T06:30:48.265Z,7.40
2023-03-26T06:33:15.023Z,7.60
2023-03-26T06:35:45.268Z,7.70
2023-03-26T06:38:12.504Z,7.80
2023-03-26T06:40:39.245Z,7.90
2023-03-26T06:43:08.753Z,8.00
2023-03-26T06:45:36.546Z,8.00
2023-03-26T06:48:04.995Z,8.00
2023-03-26T06:50:33.177Z,8.00
2023-03-26T06:53:00.475Z,8.10
2023-03-26T06:55:27.346Z,8.10
2023-03-26T06:57:55.351Z,8.10
2023-03-26T07:00:22.165Z,8.10
2023-03-26T07:02:53.928Z,8.20
2023-03-26T07:05:21.124Z,8.20
2023-03-26T07:07:51.475Z,8.30
2023-03-26T07:10:18.424Z,8.30
2023-03-26T07:12:45.873Z,8.30
2023-03-26T07:15:15.057Z,8.40
2023-03-26T07:17:41.784Z,8.50
2023-03-26T07:20:09.176Z,8.50
2023-03-26T07:22:37.273Z,8.60
2023-03-26T07:25:07.320Z,8.70
2023-03-26T07:27:44.367Z,8.80
2023-03-26T07:30:21.720Z,8.90
2023-03-26T07:33:00.227Z,9.00
2023-03-26T07:35:47.447Z,9.10
2023-03-26T07:38:17.202Z,9.30
2023-03-26T07:40:47.010Z,9.40
2023-03-26T07:43:28.751Z,9.50
2023-03-26T07:45:56.731Z,9.50
2023-03-26T07:48:27.476Z,9.60
2023-03-26T07:50:55.162Z,9.70
2023-03-26T07:53:22.826Z,9.80
2023-03-26T07:55:55.431Z,9.90
2023-03-26T07:58:30.612Z,9.90
2023-03-26T08:01:02.310Z,10.00
2023-03-26T08:03:32.544Z,10.10
2023-03-26T08:06:19.661Z,10.20
2023-03-26T08:09:05.514Z,10.20
2023-03-26T08:11:35.992Z,10.30
2023-03-26T08:14:22.905Z,10.40
2023-03-26T08:16:54.977Z,10.50
2023-03-26T08:19:25.356Z,10.60
2023-03-26T08:22:00.196Z,10.60
2023-03-26T08:24:39.102Z,10.70
2023-03-26T08:27:08.955Z,10.80
2023-03-26T08:29:46.504Z,10.80
2023-03-26T08:32:17.532Z,10.90
2023-03-26T08:34:45.013Z,10.90
2023-03-26T08:37:12.792Z,10.90
2023-03-26T08:39:42.430Z,10.90
2023-03-26T08:42:21.361Z,10.90
2023-03-26T08:45:17.249Z,10.90
2023-03-26T08:47:49.944Z,10.90
2023-03-26T08:50:36.472Z,11.00
2023-03-26T08:53:23.242Z,11.00
2023-03-26T08:55:56.754Z,11.20
2023-03-26T08:58:26.283Z,11.20
2023-03-26T09:00:59.161Z,11.30
2023-03-26T09:03:37.165Z,11.40
2023-03-26T09:06:15.568Z,11.40
2023-03-26T09:09:05.079Z,11.30
2023-03-26T09:11:54.565Z,11.30
2023-03-26T09:14:33.779Z,11.30
2023-03-26T09:17:19.811Z,11.30
2023-03-26T09:20:05.758Z,11.30
2023-03-26T09:22:32.444Z,11.30
2023-03-26T09:25:11.432Z,11.30
2023-03-26T09:27:40.767Z,11.30
2023-03-26T09:30:22.998Z,11.30
2023-03-26T09:33:12.110Z,11.30
2023-03-26T09:35:39.406Z,11.30
2023-03-26T09:38:25.075Z,11.30
2023-03-26T09:41:06.943Z,11.50
2023-03-26T09:43:40.906Z,11.70
2023-03-26T09:46:16.740Z,11.70
2023-03-26T09:48:54.072Z,11.90
2023-03-26T09:51:33.527Z,11.90
2023-03-26T09:54:06.690Z,12.00
2023-03-26T09:56:39.812Z,12.00
2023-03-26T09:59:18.638Z,12.00
2023-03-26T10:02:06.410Z,12.00
2023-03-26T10:04:54.041Z,11.90
2023-03-26T10:07:23.711Z,11.80
2023-03-26T10:09:51.377Z,11.80
2023-03-26T10:12:34.186Z,11.70
2023-03-26T10:15:25.043Z,11.70
2023-03-26T10:18:27.866Z,11.60
2023-03-26T10:21:05.891Z,11.50
2023-03-26T10:23:38.991Z,11.40
2023-03-26T10:26:15.075Z,11.30
2023-03-26T10:29:02.486Z,11.20
2023-03-26T10:31:29.395Z,11.10
2023-03-26T10:34:28.806Z,11.10
2023-03-26T10:37:16.211Z,11.00
2023-03-26T10:39:58.280Z,11.00
2023-03-26T10:42:34.131Z,11.00
2023-03-26T10:45:01.259Z,11.00
2023-03-26T10:47:47.461Z,11.00
2023-03-26T10:50:29.287Z,11.10
2023-03-26T10:53:02.149Z,11.30
2023-03-26T10:55:33.199Z,11.40
2023-03-26T10:58:03.202Z,11.50
2023-03-26T11:00:33.345Z,11.60
2023-03-26T11:03:00.213Z,11.60
2023-03-26T11:05:47.129Z,11.50
2023-03-26T11:08:33.285Z,11.40
2023-03-26T11:11:15.109Z,11.30
2023-03-26T11:14:07.946Z,11.20
2023-03-26T11:16:44.105Z,11.10
2023-03-26T11:19:22.022Z,11.20
2023-03-26T11:21:54.989Z,11.20
2023-03-26T11:24:40.831Z,11.20
2023-03-26T11:27:15.712Z,11.20
2023-03-26T11:29:52.183Z,11.20
2023-03-26T11:32:27.112Z,11.30
2023-03-26T11:35:01.157Z,11.30
2023-03-26T11:37:38.825Z,11.30
2023-03-26T11:40:11.560Z,11.20
2023-03-26T11:42:38.750Z,11.20
2023-03-26T11:45:06.587Z,11.00
2023-03-26T11:47:43.719Z,10.90
2023-03-26T11:50:15.728Z,10.90
2023-03-26T11:52:42.793Z,11.00
2023-03-26T11:55:11.410Z,11.00
2023-03-26T11:57:42.646Z,11.10
2023-03-26T12:00:23.755Z,11.10
2023-03-26T12:02:56.397Z,11.30
2023-03-26T12:05:26.482Z,11.30
2023-03-26T12:07:54.559Z,11.50
2023-03-26T12:10:42.852Z,11.60
2023-03-26T12:13:28.664Z,11.70
2023-03-26T12:16:01.481Z,11.80
2023-03-26T12:18:31.062Z,11.90
2023-03-26T12:21:18.150Z,11.90
2023-03-26T12:23:51.719Z,11.80
2023-03-26T12:26:20.806Z,11.80
2023-03-26T12:28:51.285Z,11.80
2023-03-26T12:31:19.824Z,11.90
2023-03-26T12:34:06.424Z,11.80
2023-03-26T12:36:35.954Z,11.80
2023-03-26T12:40:07.350Z,11.80
2023-03-26T12:42:52.599Z,11.70
2023-03-26T12:45:13.538Z,11.70
2023-03-26T12:47:58.584Z,11.70
2023-03-26T12:50:34.117Z,11.80
2023-03-26T12:53:14.922Z,11.80
2023-03-26T12:55:51.217Z,11.90
2023-03-26T12:58:21.292Z,12.00
2023-03-26T13:00:56.830Z,12.10
2023-03-26T13:03:27.942Z,12.10
2023-03-26T13:06:18.954Z,12.30
2023-03-26T13:08:49.024Z,12.20
2023-03-26T13:11:33.253Z,12.30
2023-03-26T13:14:00.829Z,12.30
2023-03-26T13:16:31.161Z,12.30
2023-03-26T13:19:09.418Z,12.30
2023-03-26T13:21:53.646Z,12.30
2023-03-26T13:24:31.296Z,12.30
2023-03-26T13:27:13.051Z,12.40
2023-03-26T13:29:51.829Z,12.40
2023-03-26T13:32:37.080Z,12.40
2023-03-26T13:35:14.008Z,12.40
2023-03-26T13:37:53.737Z,12.40
2023-03-26T13:40:26.501Z,12.40
2023-03-26T13:43:01.005Z,12.40
2023-03-26T13:45:49.586Z,12.40
2023-03-26T13:48:19.050Z,12.50
2023-03-26T13:50:52.392Z,12.50
2023-03-26T13:53:27.323Z,12.50
2023-03-26T13:55:57.041Z,12.60
2023-03-26T13:58:23.694Z,12.50
2023-03-26T14:01:07.478Z,12.60
2023-03-26T14:03:37.574Z,12.60
2023-03-26T14:06:06.511Z,12.60
2023-03-26T14:08:57.394Z,12.60
2023-03-26T14:11:42.477Z,12.60
2023-03-26T14:14:19.561Z,12.50
2023-03-26T14:16:49.668Z,12.50
2023-03-26T14:19:31.897Z,12.30
2023-03-26T14:21:59.390Z,12.30
2023-03-26T14:24:26.141Z,12.10
2023-03-26T14:27:18.868Z,12.00
2023-03-26T14:29:56.705Z,11.90
2023-03-26T14:32:30.199Z,12.00
2023-03-26T14:35:00.033Z,11.90
2023-03-26T14:37:42.371Z,11.80
2023-03-26T14:40:28.508Z,11.60
2023-03-26T14:42:59.062Z,11.40
2023-03-26T14:45:40.997Z,11.30
2023-03-26T14:48:09.951Z,11.10
2023-03-26T14:50:46.690Z,11.00
2023-03-26T14:53:20.369Z,10.90
2023-03-26T14:55:59.456Z,10.80
2023-03-26T14:58:38.782Z,10.80
2023-03-26T15:01:41.540Z,10.80
2023-03-26T15:04:34.179Z,10.70
2023-03-26T15:07:16.299Z,10.50
2023-03-26T15:10:02.516Z,10.40
2023-03-26T15:12:44.902Z,10.20
2023-03-26T15:15:27.100Z,10.10
2023-03-26T15:18:14.103Z,9.90
2023-03-26T15:20:50.104Z,9.80
2023-03-26T15:23:27.869Z,9.90
2023-03-26T15:26:24.148Z,9.90
2023-03-26T15:29:06.362Z,9.90
2023-03-26T15:31:41.131Z,9.90
2023-03-26T15:34:07.851Z,10.00
2023-03-26T15:36:44.688Z,9.90
2023-03-26T15:39:38.336Z,9.90
2023-03-26T15:42:05.262Z,9.90
2023-03-26T15:44:50.780Z,9.90
2023-03-26T15:47:40.507Z,9.90
2023-03-26T15:50:23.629Z,9.90
2023-03-26T15:53:10.137Z,9.80
2023-03-26T15:55:43.629Z,9.90
2023-03-26T15:58:28.171Z,9.80
2023-03-26T16:01:19.496Z,9.80
2023-03-26T16:04:09.726Z,9.80
2023-03-26T16:06:41.748Z,9.80
2023-03-26T16:09:23.009Z,9.70
2023-03-26T16:12:00.195Z,9.70
2023-03-26T16:14:36.004Z,9.60
2023-03-26T16:17:06.692Z,9.60
2023-03-26T16:19:52.148Z,9.50
2023-03-26T16:22:42.522Z,9.50
2023-03-26T16:25:30.781Z,9.40
2023-03-26T16:28:18.068Z,9.30
2023-03-26T16:30:48.296Z,9.30
2023-03-26T16:33:17.666Z,9.30
2023-03-26T16:35:59.723Z,9.20
2023-03-26T16:38:27.819Z,9.20
2023-03-26T16:41:00.128Z,9.20
2023-03-26T16:43:46.144Z,9.10
2023-03-26T16:46:32.062Z,9.10
2023-03-26T16:48:58.955Z,9.00
2023-03-26T16:51:44.570Z,9.00
2023-03-26T16:54:32.332Z,8.90
2023-03-26T16:57:01.993Z,8.80
2023-03-26T17:00:05.886Z,8.80
2023-03-26T17:02:56.995Z,8.70
2023-03-26T17:05:38.125Z,8.60
2023-03-26T17:08:15.251Z,8.60
2023-03-26T17:10:57.036Z,8.60
2023-03-26T17:13:30.015Z,8.60
2023-03-26T17:16:16.329Z,8.50
2023-03-26T17:18:52.652Z,8.50
2023-03-26T17:21:46.508Z,8.50
2023-03-26T17:24:23.398Z,8.50
2023-03-26T17:26:55.661Z,8.40
2023-03-26T17:29:22.399Z,8.40
2023-03-26T17:32:04.692Z,8.40
2023-03-26T17:34:31.412Z,8.40
2023-03-26T17:36:58.703Z,8.40
2023-03-26T17:39:51.766Z,8.30
2023-03-26T17:42:25.442Z,8.30
2023-03-26T17:44:55.789Z,8.30
2023-03-26T17:47:26.403Z,8.20
2023-03-26T17:49:56.863Z,8.20
2023-03-26T17:52:29.748Z,8.10
2023-03-26T17:54:57.009Z,8.00
2023-03-26T17:57:47.371Z,8.00
2023-03-26T18:00:16.684Z,8.00
2023-03-26T18:02:47.657Z,8.00
2023-03-26T18:05:16.278Z,7.90
2023-03-26T18:07:49.501Z,7.90
2023-03-26T18:10:36.275Z,7.90
2023-03-26T18:13:10.394Z,7.90
2023-03-26T18:15:43.184Z,7.90
2023-03-26T18:18:18.012Z,7.90
2023-03-26T18:20:47.261Z,8.00
2023-03-26T18:23:35.107Z,8.00
2023-03-26T18:26:16.864Z,8.00
2023-03-26T18:28:54.700Z,8.00
2023-03-26T18:31:26.513Z,8.00
2023-03-26T18:33:58.987Z,8.00
2023-03-26T18:36:28.040Z,8.00
2023-03-26T18:39:03.153Z,8.00
2023-03-26T18:41:37.280Z,8.00
2023-03-26T18:44:07.533Z,7.90
2023-03-26T18:46:34.497Z,7.90
2023-03-26T18:49:05.402Z,7.90
2023-03-26T18:51:36.419Z,7.80
2023-03-26T18:54:08.185Z,7.80
2023-03-26T18:56:36.047Z,7.80
2023-03-26T18:59:04.194Z,7.80
2023-03-26T19:01:32.356Z,7.80
2023-03-26T19:04:02.348Z,7.80
2023-03-26T19:06:29.738Z,7.80
2023-03-26T19:08:57.374Z,7.80
2023-03-26T19:11:24.794Z,7.80
2023-03-26T19:14:06.921Z,7.80
2023-03-26T19:16:35.624Z,7.80
2023-03-26T19:19:04.400Z,7.80
2023-03-26T19:21:32.030Z,7.80
2023-03-26T19:23:58.774Z,7.80
2023-03-26T19:26:25.684Z,7.80
2023-03-26T19:28:53.826Z,7.70
2023-03-26T19:31:30.248Z,7.70
2023-03-26T19:34:02.773Z,7.70
2023-03-26T19:36:31.763Z,7.70
2023-03-26T19:39:02.385Z,7.70
2023-03-26T19:41:36.830Z,7.60
2023-03-26T19:44:13.323Z,7.60
2023-03-26T19:46:52.954Z,7.50
2023-03-26T19:49:28.397Z,7.50
2023-03-26T19:52:11.126Z,7.40
2023-03-26T19:55:00.055Z,7.40
2023-03-26T19:57:28.047Z,7.40
2023-03-26T19:59:55.475Z,7.40
2023-03-26T20:02:25.390Z,7.30
2023-03-26T20:04:52.229Z,7.30
2023-03-26T20:07:35.643Z,7.30
2023-03-26T20:12:52.382Z,7.30
2023-03-26T20:15:39.043Z,7.20
2023-03-26T20:18:05.875Z,7.20
2023-03-26T20:20:34.230Z,7.20
2023-03-26T20:23:01.559Z,7.20
2023-03-26T20:25:31.506Z,7.20
2023-03-26T20:27:59.182Z,7.20
2023-03-26T20:33:12.849Z,7.10
2023-03-26T20:35:43.048Z,7.10
2023-03-26T20:38:10.399Z,7.10
2023-03-26T20:40:38.936Z,7.10
2023-03-26T20:43:09.638Z,7.00
2023-03-26T20:45:36.425Z,7.00
2023-03-26T20:48:03.186Z,6.90
2023-03-26T20:50:31.642Z,6.90
2023-03-26T20:53:00.901Z,6.90
2023-03-26T20:55:28.326Z,6.90
2023-03-26T20:57:55.281Z,6.80
2023-03-26T21:00:26.059Z,6.80
2023-03-26T21:02:54.255Z,6.80
2023-03-26T21:05:24.957Z,6.80
2023-03-26T21:07:52.658Z,6.80
2023-03-26T21:10:19.869Z,6.70
2023-03-26T21:12:50.626Z,6.70
2023-03-26T21:15:23.600Z,6.70
2023-03-26T21:17:52.139Z,6.70
2023-03-26T21:20:19.655Z,6.60
2023-03-26T21:23:04.629Z,6.60
2023-03-26T21:25:53.179Z,6.60
2023-03-26T21:28:35.865Z,6.60
2023-03-26T21:31:13.914Z,6.60
2023-03-26T21:33:41.054Z,6.60
2023-03-26T21:36:08.536Z,6.70
2023-03-26T21:38:35.846Z,6.60
2023-03-26T21:41:03.684Z,6.60
2023-03-26T21:43:30.604Z,6.60
2023-03-26T21:45:57.807Z,6.60
2023-03-26T21:48:24.813Z,6.60
2023-03-26T21:50:51.667Z,6.60
2023-03-26T21:53:18.345Z,6.60
2023-03-26T21:56:03.941Z,6.60
2023-03-26T21:58:40.859Z,6.50
2023-03-26T22:01:30.657Z,6.50
2023-03-26T22:03:59.538Z,6.40
2023-03-26T22:06:31.996Z,6.40
2023-03-26T22:09:00.031Z,6.40
2023-03-26T22:11:26.873Z,6.40
2023-03-26T22:13:55.550Z,6.40
2023-03-26T22:16:25.290Z,6.40
2023-03-26T22:18:52.982Z,6.40
2023-03-26T22:21:20.359Z,6.50
2023-03-26T22:23:52.701Z,6.40
2023-03-26T22:26:21.106Z,6.40
2023-03-26T22:28:48.345Z,6.40
2023-03-26T22:31:15.295Z,6.40
2023-03-26T22:33:42.822Z,6.40
2023-03-26T22:36:23.400Z,6.40
2023-03-26T22:38:53.204Z,6.40
2023-03-26T22:41:20.696Z,6.40
2023-03-26T22:43:47.583Z,6.30
2023-03-26T22:46:14.756Z,6.40
2023-03-26T22:48:41.462Z,6.30
2023-03-26T22:51:10.365Z,6.40
2023-03-26T22:53:37.551Z,6.40
2023-03-26T22:56:04.503Z,6.40
2023-03-26T22:58:32.916Z,6.40
2023-03-26T23:01:06.090Z,6.40
2023-03-26T23:03:36.816Z,6.40
2023-03-26T23:06:08.556Z,6.40
2023-03-26T23:08:36.245Z,6.50
2023-03-26T23:11:08.550Z,6.50
2023-03-26T23:13:35.218Z,6.50
2023-03-26T23:16:02.273Z,6.50
2023-03-26T23:18:31.349Z,6.50
2023-03-26T23:20:58.693Z,6.50
2023-03-26T23:23:32.029Z,6.50
2023-03-26T23:26:00.196Z,6.50
2023-03-26T23:28:27.396Z,6.50
2023-03-26T23:30:54.493Z,6.50
2023-03-26T23:33:22.256Z,6.50
2023-03-26T23:35:50.065Z,6.50
2023-03-26T23:38:18.207Z,6.50
2023-03-26T23:40:45.754Z,6.50
2023-03-26T23:43:25.825Z,6.50
2023-03-26T23:45:53.003Z,6.50
2023-03-26T23:48:25.661Z,6.50
2023-03-26T23:51:03.453Z,6.50
2023-03-26T23:53:31.915Z,6.50
2023-03-26T23:55:59.041Z,6.50
2023-03-26T23:58:30.070Z,6.50
